Miami, Florida
Current Conditions -  °F | °C
As of 5:53 AM on Sunday 23 Nov 2014 (Local Time) from KMIA Reporting Station
Scattered Clouds Scattered Clouds  
Wind Chill: 25°   Ceiling: Unl
Heat Index: 26°   Visibility: 10mi
Dew Point: 22°   Wind: 9mph
Humidity: 84%   Direction: 110°ESE
Pressure: 30.02"   Gusts: NA
Location:  25.77°N, 80.19°W
Report Text: KMIA 231053Z 11008KT 10SM SCT022 SCT036 25/22 A3002 RMK AO2 SLP166 T02500222
Loading
Personal Weather Stations






























Interactive Weather Map New forecast layout! Learn more

10-Day Weather Forecast

Advertisements
Track Severe Weather on mobile